sensor_id;sensor_type;location;lat;lon;timestamp;P1;durP1;ratioP1;P2;durP2;ratioP2
66118;SDS011;52912;48.564;9.302;2022-09-09T00:01:33;4.85;;;1.65;;
66118;SDS011;52912;48.564;9.302;2022-09-09T00:04:12;4.80;;;1.48;;
66118;SDS011;52912;48.564;9.302;2022-09-09T00:06:44;5.28;;;1.40;;
66118;SDS011;52912;48.564;9.302;2022-09-09T00:09:16;3.58;;;1.50;;
66118;SDS011;52912;48.564;9.302;2022-09-09T00:11:43;4.35;;;1.20;;
66118;SDS011;52912;48.564;9.302;2022-09-09T00:14:13;4.30;;;1.10;;
66118;SDS011;52912;48.564;9.302;2022-09-09T00:16:47;4.63;;;1.20;;
66118;SDS011;52912;48.564;9.302;2022-09-09T00:19:22;4.95;;;1.45;;
66118;SDS011;52912;48.564;9.302;2022-09-09T00:21:50;7.93;;;1.55;;
66118;SDS011;52912;48.564;9.302;2022-09-09T00:24:23;2.60;;;1.50;;
66118;SDS011;52912;48.564;9.302;2022-09-09T00:26:53;8.18;;;1.55;;
66118;SDS011;52912;48.564;9.302;2022-09-09T00:29:27;5.05;;;1.40;;
66118;SDS011;52912;48.564;9.302;2022-09-09T00:32:00;8.07;;;1.30;;
66118;SDS011;52912;48.564;9.302;2022-09-09T00:34:31;3.92;;;1.30;;
66118;SDS011;52912;48.564;9.302;2022-09-09T00:36:58;6.00;;;1.60;;
66118;SDS011;52912;48.564;9.302;2022-09-09T00:39:25;4.18;;;1.40;;
66118;SDS011;52912;48.564;9.302;2022-09-09T00:41:59;5.90;;;1.40;;
66118;SDS011;52912;48.564;9.302;2022-09-09T00:44:37;7.57;;;1.60;;
66118;SDS011;52912;48.564;9.302;2022-09-09T00:47:12;6.20;;;1.50;;
66118;SDS011;52912;48.564;9.302;2022-09-09T00:49:54;7.50;;;1.57;;
66118;SDS011;52912;48.564;9.302;2022-09-09T00:52:27;6.60;;;1.90;;
66118;SDS011;52912;48.564;9.302;2022-09-09T00:55:03;3.95;;;1.30;;
66118;SDS011;52912;48.564;9.302;2022-09-09T00:57:34;7.55;;;1.40;;
66118;SDS011;52912;48.564;9.302;2022-09-09T01:00:16;3.92;;;1.17;;
66118;SDS011;52912;48.564;9.302;2022-09-09T01:02:45;4.10;;;1.23;;
66118;SDS011;52912;48.564;9.302;2022-09-09T01:05:20;2.38;;;1.20;;
66118;SDS011;52912;48.564;9.302;2022-09-09T01:07:54;8.35;;;1.20;;
66118;SDS011;52912;48.564;9.302;2022-09-09T01:10:24;5.55;;;1.20;;
66118;SDS011;52912;48.564;9.302;2022-09-09T01:13:01;4.07;;;1.25;;
66118;SDS011;52912;48.564;9.302;2022-09-09T01:15:29;4.03;;;1.30;;
66118;SDS011;52912;48.564;9.302;2022-09-09T01:17:58;5.10;;;1.70;;
66118;SDS011;52912;48.564;9.302;2022-09-09T01:20:29;5.70;;;1.52;;
66118;SDS011;52912;48.564;9.302;2022-09-09T01:23:16;6.00;;;1.75;;
66118;SDS011;52912;48.564;9.302;2022-09-09T01:26:10;6.85;;;1.30;;
66118;SDS011;52912;48.564;9.302;2022-09-09T01:28:40;2.45;;;1.02;;
66118;SDS011;52912;48.564;9.302;2022-09-09T01:31:09;4.40;;;1.30;;
66118;SDS011;52912;48.564;9.302;2022-09-09T01:33:39;3.72;;;1.05;;
66118;SDS011;52912;48.564;9.302;2022-09-09T01:36:05;5.18;;;1.35;;
66118;SDS011;52912;48.564;9.302;2022-09-09T01:38:34;2.95;;;1.20;;
66118;SDS011;52912;48.564;9.302;2022-09-09T01:41:01;4.40;;;1.40;;
66118;SDS011;52912;48.564;9.302;2022-09-09T01:43:28;10.60;;;1.77;;
66118;SDS011;52912;48.564;9.302;2022-09-09T01:45:55;3.67;;;1.25;;
66118;SDS011;52912;48.564;9.302;2022-09-09T01:48:23;3.88;;;0.98;;
66118;SDS011;52912;48.564;9.302;2022-09-09T01:50:49;5.55;;;1.58;;
66118;SDS011;52912;48.564;9.302;2022-09-09T01:53:15;2.70;;;0.90;;
66118;SDS011;52912;48.564;9.302;2022-09-09T01:55:45;8.10;;;1.52;;
66118;SDS011;52912;48.564;9.302;2022-09-09T01:58:24;6.82;;;1.40;;
66118;SDS011;52912;48.564;9.302;2022-09-09T02:00:59;4.97;;;1.40;;
66118;SDS011;52912;48.564;9.302;2022-09-09T02:03:30;7.18;;;1.35;;
66118;SDS011;52912;48.564;9.302;2022-09-09T02:06:00;6.20;;;1.23;;
66118;SDS011;52912;48.564;9.302;2022-09-09T02:08:36;3.53;;;1.50;;
66118;SDS011;52912;48.564;9.302;2022-09-09T02:11:08;7.47;;;1.50;;
66118;SDS011;52912;48.564;9.302;2022-09-09T02:13:39;5.13;;;1.25;;
66118;SDS011;52912;48.564;9.302;2022-09-09T02:16:07;4.18;;;1.50;;
66118;SDS011;52912;48.564;9.302;2022-09-09T02:18:36;4.93;;;1.45;;
66118;SDS011;52912;48.564;9.302;2022-09-09T02:21:06;5.55;;;1.52;;
66118;SDS011;52912;48.564;9.302;2022-09-09T02:23:32;3.55;;;1.20;;
66118;SDS011;52912;48.564;9.302;2022-09-09T02:25:58;9.15;;;1.95;;
66118;SDS011;52912;48.564;9.302;2022-09-09T02:28:25;4.10;;;1.30;;
66118;SDS011;52912;48.564;9.302;2022-09-09T02:30:56;5.03;;;1.20;;
66118;SDS011;52912;48.564;9.302;2022-09-09T02:33:22;3.08;;;1.25;;
66118;SDS011;52912;48.564;9.302;2022-09-09T02:35:52;3.28;;;1.30;;
66118;SDS011;52912;48.564;9.302;2022-09-09T02:38:18;3.42;;;1.35;;
66118;SDS011;52912;48.564;9.302;2022-09-09T02:40:46;5.63;;;1.40;;
66118;SDS011;52912;48.564;9.302;2022-09-09T02:43:11;6.72;;;1.30;;
66118;SDS011;52912;48.564;9.302;2022-09-09T02:45:40;5.35;;;1.40;;
66118;SDS011;52912;48.564;9.302;2022-09-09T02:48:11;3.03;;;1.20;;
66118;SDS011;52912;48.564;9.302;2022-09-09T02:50:44;5.22;;;1.38;;
66118;SDS011;52912;48.564;9.302;2022-09-09T02:53:20;9.05;;;2.22;;
66118;SDS011;52912;48.564;9.302;2022-09-09T02:55:49;3.22;;;1.10;;
66118;SDS011;52912;48.564;9.302;2022-09-09T02:58:19;1.98;;;1.00;;
66118;SDS011;52912;48.564;9.302;2022-09-09T03:00:46;4.10;;;1.33;;
66118;SDS011;52912;48.564;9.302;2022-09-09T03:03:14;4.47;;;1.48;;
66118;SDS011;52912;48.564;9.302;2022-09-09T03:05:40;8.43;;;1.30;;
66118;SDS011;52912;48.564;9.302;2022-09-09T03:08:06;3.85;;;1.33;;
66118;SDS011;52912;48.564;9.302;2022-09-09T03:10:31;6.57;;;1.55;;
66118;SDS011;52912;48.564;9.302;2022-09-09T03:12:57;4.35;;;1.30;;
66118;SDS011;52912;48.564;9.302;2022-09-09T03:15:24;3.03;;;1.20;;
66118;SDS011;52912;48.564;9.302;2022-09-09T03:17:49;2.25;;;1.20;;
66118;SDS011;52912;48.564;9.302;2022-09-09T03:20:16;3.58;;;1.35;;
66118;SDS011;52912;48.564;9.302;2022-09-09T03:22:41;5.38;;;1.15;;
66118;SDS011;52912;48.564;9.302;2022-09-09T03:25:07;3.38;;;1.02;;
66118;SDS011;52912;48.564;9.302;2022-09-09T03:27:33;2.38;;;1.48;;
66118;SDS011;52912;48.564;9.302;2022-09-09T03:29:58;3.15;;;1.17;;
66118;SDS011;52912;48.564;9.302;2022-09-09T03:32:23;3.65;;;1.60;;
66118;SDS011;52912;48.564;9.302;2022-09-09T03:34:49;6.22;;;1.30;;
66118;SDS011;52912;48.564;9.302;2022-09-09T03:37:16;4.53;;;1.20;;
66118;SDS011;52912;48.564;9.302;2022-09-09T03:39:42;2.72;;;1.00;;
66118;SDS011;52912;48.564;9.302;2022-09-09T03:42:07;3.38;;;1.40;;
66118;SDS011;52912;48.564;9.302;2022-09-09T03:44:33;6.53;;;1.50;;
66118;SDS011;52912;48.564;9.302;2022-09-09T03:46:58;4.18;;;1.10;;
66118;SDS011;52912;48.564;9.302;2022-09-09T03:49:24;6.65;;;1.40;;
66118;SDS011;52912;48.564;9.302;2022-09-09T03:51:49;3.72;;;1.17;;
66118;SDS011;52912;48.564;9.302;2022-09-09T03:54:16;3.05;;;1.30;;
66118;SDS011;52912;48.564;9.302;2022-09-09T03:56:41;5.03;;;1.75;;
66118;SDS011;52912;48.564;9.302;2022-09-09T03:59:07;4.28;;;1.45;;
66118;SDS011;52912;48.564;9.302;2022-09-09T04:01:32;8.00;;;1.65;;
66118;SDS011;52912;48.564;9.302;2022-09-09T04:03:58;3.05;;;1.25;;
66118;SDS011;52912;48.564;9.302;2022-09-09T04:06:23;2.80;;;1.13;;
66118;SDS011;52912;48.564;9.302;2022-09-09T04:08:49;3.20;;;1.08;;
66118;SDS011;52912;48.564;9.302;2022-09-09T04:11:16;5.60;;;1.20;;
66118;SDS011;52912;48.564;9.302;2022-09-09T04:13:41;2.97;;;1.05;;
66118;SDS011;52912;48.564;9.302;2022-09-09T04:16:07;6.93;;;1.30;;
66118;SDS011;52912;48.564;9.302;2022-09-09T04:18:34;2.83;;;1.30;;
66118;SDS011;52912;48.564;9.302;2022-09-09T04:21:00;2.63;;;0.90;;
66118;SDS011;52912;48.564;9.302;2022-09-09T04:23:26;2.05;;;1.10;;
66118;SDS011;52912;48.564;9.302;2022-09-09T04:25:53;4.25;;;1.30;;
66118;SDS011;52912;48.564;9.302;2022-09-09T04:28:21;2.40;;;1.20;;
66118;SDS011;52912;48.564;9.302;2022-09-09T04:30:48;4.57;;;1.25;;
66118;SDS011;52912;48.564;9.302;2022-09-09T04:33:14;3.42;;;1.30;;
66118;SDS011;52912;48.564;9.302;2022-09-09T04:35:43;3.42;;;1.52;;
66118;SDS011;52912;48.564;9.302;2022-09-09T04:38:09;1.58;;;1.17;;
66118;SDS011;52912;48.564;9.302;2022-09-09T04:40:35;18.63;;;1.60;;
66118;SDS011;52912;48.564;9.302;2022-09-09T04:43:01;5.65;;;1.02;;
66118;SDS011;52912;48.564;9.302;2022-09-09T04:45:29;4.45;;;1.20;;
66118;SDS011;52912;48.564;9.302;2022-09-09T04:47:54;7.55;;;1.60;;
66118;SDS011;52912;48.564;9.302;2022-09-09T04:50:20;5.25;;;1.10;;
66118;SDS011;52912;48.564;9.302;2022-09-09T04:52:45;2.80;;;1.13;;
66118;SDS011;52912;48.564;9.302;2022-09-09T04:55:11;3.63;;;1.40;;
66118;SDS011;52912;48.564;9.302;2022-09-09T04:57:36;2.97;;;1.52;;
66118;SDS011;52912;48.564;9.302;2022-09-09T05:00:02;2.35;;;1.40;;
66118;SDS011;52912;48.564;9.302;2022-09-09T05:02:30;3.30;;;1.40;;
66118;SDS011;52912;48.564;9.302;2022-09-09T05:04:55;12.02;;;3.63;;
66118;SDS011;52912;48.564;9.302;2022-09-09T05:07:21;9.77;;;1.52;;
66118;SDS011;52912;48.564;9.302;2022-09-09T05:09:46;4.60;;;1.55;;
66118;SDS011;52912;48.564;9.302;2022-09-09T05:12:12;2.90;;;1.60;;
66118;SDS011;52912;48.564;9.302;2022-09-09T05:14:37;4.60;;;1.58;;
66118;SDS011;52912;48.564;9.302;2022-09-09T05:17:03;5.05;;;1.60;;
66118;SDS011;52912;48.564;9.302;2022-09-09T05:19:30;2.75;;;1.60;;
66118;SDS011;52912;48.564;9.302;2022-09-09T05:21:55;6.18;;;1.70;;
66118;SDS011;52912;48.564;9.302;2022-09-09T05:24:21;8.00;;;1.73;;
66118;SDS011;52912;48.564;9.302;2022-09-09T05:26:46;2.75;;;1.65;;
66118;SDS011;52912;48.564;9.302;2022-09-09T05:29:11;5.85;;;2.42;;
66118;SDS011;52912;48.564;9.302;2022-09-09T05:31:37;2.83;;;1.50;;
66118;SDS011;52912;48.564;9.302;2022-09-09T05:34:02;2.85;;;1.60;;
66118;SDS011;52912;48.564;9.302;2022-09-09T05:36:29;4.07;;;1.50;;
66118;SDS011;52912;48.564;9.302;2022-09-09T05:38:55;6.43;;;1.67;;
66118;SDS011;52912;48.564;9.302;2022-09-09T05:41:20;3.70;;;1.65;;
66118;SDS011;52912;48.564;9.302;2022-09-09T05:43:46;6.57;;;1.67;;
66118;SDS011;52912;48.564;9.302;2022-09-09T05:46:12;7.18;;;1.77;;
66118;SDS011;52912;48.564;9.302;2022-09-09T05:48:39;4.50;;;1.45;;
66118;SDS011;52912;48.564;9.302;2022-09-09T05:51:06;7.28;;;1.52;;
66118;SDS011;52912;48.564;9.302;2022-09-09T05:53:36;5.68;;;1.83;;
66118;SDS011;52912;48.564;9.302;2022-09-09T05:56:01;6.93;;;1.58;;
66118;SDS011;52912;48.564;9.302;2022-09-09T05:58:28;4.93;;;1.42;;
66118;SDS011;52912;48.564;9.302;2022-09-09T06:00:59;5.50;;;1.65;;
66118;SDS011;52912;48.564;9.302;2022-09-09T06:03:25;6.30;;;1.73;;
66118;SDS011;52912;48.564;9.302;2022-09-09T06:05:56;4.97;;;1.60;;
66118;SDS011;52912;48.564;9.302;2022-09-09T06:08:22;4.22;;;1.60;;
66118;SDS011;52912;48.564;9.302;2022-09-09T06:10:49;4.75;;;1.60;;
66118;SDS011;52912;48.564;9.302;2022-09-09T06:13:14;4.40;;;1.92;;
66118;SDS011;52912;48.564;9.302;2022-09-09T06:15:42;3.40;;;1.33;;
66118;SDS011;52912;48.564;9.302;2022-09-09T06:18:14;3.63;;;1.38;;
66118;SDS011;52912;48.564;9.302;2022-09-09T06:20:40;5.88;;;1.42;;
66118;SDS011;52912;48.564;9.302;2022-09-09T06:23:05;3.83;;;1.52;;
66118;SDS011;52912;48.564;9.302;2022-09-09T06:25:31;6.50;;;1.60;;
66118;SDS011;52912;48.564;9.302;2022-09-09T06:27:58;3.03;;;1.20;;
66118;SDS011;52912;48.564;9.302;2022-09-09T06:30:23;3.33;;;1.30;;
66118;SDS011;52912;48.564;9.302;2022-09-09T06:32:49;3.83;;;1.15;;
66118;SDS011;52912;48.564;9.302;2022-09-09T06:35:14;5.72;;;1.33;;
66118;SDS011;52912;48.564;9.302;2022-09-09T06:37:39;8.68;;;1.90;;
66118;SDS011;52912;48.564;9.302;2022-09-09T06:40:10;6.22;;;2.17;;
66118;SDS011;52912;48.564;9.302;2022-09-09T06:42:35;7.20;;;2.10;;
66118;SDS011;52912;48.564;9.302;2022-09-09T06:45:02;4.75;;;2.10;;
66118;SDS011;52912;48.564;9.302;2022-09-09T06:47:28;5.07;;;1.88;;
66118;SDS011;52912;48.564;9.302;2022-09-09T06:49:54;6.85;;;2.10;;
66118;SDS011;52912;48.564;9.302;2022-09-09T06:52:19;7.05;;;1.90;;
66118;SDS011;52912;48.564;9.302;2022-09-09T06:54:44;7.32;;;1.90;;
66118;SDS011;52912;48.564;9.302;2022-09-09T06:57:10;4.30;;;1.67;;
66118;SDS011;52912;48.564;9.302;2022-09-09T06:59:35;8.00;;;2.50;;
66118;SDS011;52912;48.564;9.302;2022-09-09T07:02:02;6.97;;;2.45;;
66118;SDS011;52912;48.564;9.302;2022-09-09T07:04:28;9.55;;;2.75;;
66118;SDS011;52912;48.564;9.302;2022-09-09T07:06:53;6.53;;;2.60;;
66118;SDS011;52912;48.564;9.302;2022-09-09T07:09:18;7.10;;;2.95;;
66118;SDS011;52912;48.564;9.302;2022-09-09T07:11:45;12.48;;;3.35;;
66118;SDS011;52912;48.564;9.302;2022-09-09T07:14:11;12.00;;;3.60;;
66118;SDS011;52912;48.564;9.302;2022-09-09T07:16:37;11.15;;;3.10;;
66118;SDS011;52912;48.564;9.302;2022-09-09T07:19:07;10.10;;;2.22;;
66118;SDS011;52912;48.564;9.302;2022-09-09T07:21:33;6.22;;;2.70;;
66118;SDS011;52912;48.564;9.302;2022-09-09T07:23:58;6.05;;;1.90;;
66118;SDS011;52912;48.564;9.302;2022-09-09T07:26:25;5.55;;;1.80;;
66118;SDS011;52912;48.564;9.302;2022-09-09T07:28:52;6.43;;;1.73;;
66118;SDS011;52912;48.564;9.302;2022-09-09T07:31:19;4.97;;;1.80;;
66118;SDS011;52912;48.564;9.302;2022-09-09T07:33:46;4.22;;;1.58;;
66118;SDS011;52912;48.564;9.302;2022-09-09T07:36:14;3.50;;;1.50;;
66118;SDS011;52912;48.564;9.302;2022-09-09T07:38:41;6.35;;;1.83;;
66118;SDS011;52912;48.564;9.302;2022-09-09T07:41:08;7.18;;;1.60;;
66118;SDS011;52912;48.564;9.302;2022-09-09T07:43:35;3.97;;;1.70;;
66118;SDS011;52912;48.564;9.302;2022-09-09T07:46:01;7.20;;;1.52;;
66118;SDS011;52912;48.564;9.302;2022-09-09T07:48:26;6.85;;;1.60;;
66118;SDS011;52912;48.564;9.302;2022-09-09T07:50:52;7.75;;;2.05;;
66118;SDS011;52912;48.564;9.302;2022-09-09T07:53:18;5.50;;;1.90;;
66118;SDS011;52912;48.564;9.302;2022-09-09T07:55:44;6.20;;;1.88;;
66118;SDS011;52912;48.564;9.302;2022-09-09T07:58:10;5.13;;;1.63;;
66118;SDS011;52912;48.564;9.302;2022-09-09T08:00:35;7.97;;;1.90;;
66118;SDS011;52912;48.564;9.302;2022-09-09T08:03:00;5.85;;;1.65;;
66118;SDS011;52912;48.564;9.302;2022-09-09T08:05:26;5.00;;;1.58;;
66118;SDS011;52912;48.564;9.302;2022-09-09T08:07:51;5.65;;;1.83;;
66118;SDS011;52912;48.564;9.302;2022-09-09T08:10:18;2.28;;;1.20;;
66118;SDS011;52912;48.564;9.302;2022-09-09T08:12:44;5.85;;;1.40;;
66118;SDS011;52912;48.564;9.302;2022-09-09T08:15:09;5.47;;;1.48;;
66118;SDS011;52912;48.564;9.302;2022-09-09T08:17:34;3.38;;;1.20;;
66118;SDS011;52912;48.564;9.302;2022-09-09T08:20:00;8.70;;;1.30;;
66118;SDS011;52912;48.564;9.302;2022-09-09T08:22:25;6.80;;;1.33;;
66118;SDS011;52912;48.564;9.302;2022-09-09T08:24:51;4.00;;;1.27;;
66118;SDS011;52912;48.564;9.302;2022-09-09T08:27:18;5.72;;;1.75;;
66118;SDS011;52912;48.564;9.302;2022-09-09T08:29:44;4.82;;;1.30;;
66118;SDS011;52912;48.564;9.302;2022-09-09T08:32:09;5.55;;;1.50;;
66118;SDS011;52912;48.564;9.302;2022-09-09T08:34:35;4.47;;;1.30;;
66118;SDS011;52912;48.564;9.302;2022-09-09T08:37:00;4.75;;;1.30;;
66118;SDS011;52912;48.564;9.302;2022-09-09T08:39:26;3.95;;;1.23;;
66118;SDS011;52912;48.564;9.302;2022-09-09T08:41:57;2.85;;;1.13;;
66118;SDS011;52912;48.564;9.302;2022-09-09T08:44:45;3.45;;;1.27;;
66118;SDS011;52912;48.564;9.302;2022-09-09T08:47:28;3.70;;;1.33;;
66118;SDS011;52912;48.564;9.302;2022-09-09T08:50:11;4.95;;;1.30;;
66118;SDS011;52912;48.564;9.302;2022-09-09T08:52:44;4.25;;;1.20;;
66118;SDS011;52912;48.564;9.302;2022-09-09T08:55:20;4.85;;;1.27;;
66118;SDS011;52912;48.564;9.302;2022-09-09T08:57:51;3.65;;;1.13;;
66118;SDS011;52912;48.564;9.302;2022-09-09T09:00:19;3.35;;;1.20;;
66118;SDS011;52912;48.564;9.302;2022-09-09T09:02:46;4.40;;;1.50;;
66118;SDS011;52912;48.564;9.302;2022-09-09T09:05:19;4.78;;;1.35;;
66118;SDS011;52912;48.564;9.302;2022-09-09T09:07:55;4.07;;;1.38;;
66118;SDS011;52912;48.564;9.302;2022-09-09T09:10:33;2.10;;;1.10;;
66118;SDS011;52912;48.564;9.302;2022-09-09T09:13:12;2.70;;;1.02;;
66118;SDS011;52912;48.564;9.302;2022-09-09T09:15:41;7.32;;;1.40;;
66118;SDS011;52912;48.564;9.302;2022-09-09T09:18:10;5.85;;;1.35;;
66118;SDS011;52912;48.564;9.302;2022-09-09T09:20:38;9.57;;;1.30;;
66118;SDS011;52912;48.564;9.302;2022-09-09T09:23:15;3.38;;;1.13;;
66118;SDS011;52912;48.564;9.302;2022-09-09T09:25:46;4.63;;;1.20;;
66118;SDS011;52912;48.564;9.302;2022-09-09T09:28:12;7.68;;;1.42;;
66118;SDS011;52912;48.564;9.302;2022-09-09T09:30:42;3.92;;;1.17;;
66118;SDS011;52912;48.564;9.302;2022-09-09T09:33:14;5.47;;;1.20;;
66118;SDS011;52912;48.564;9.302;2022-09-09T09:35:44;5.38;;;1.13;;
66118;SDS011;52912;48.564;9.302;2022-09-09T09:38:12;4.80;;;1.23;;
66118;SDS011;52912;48.564;9.302;2022-09-09T09:40:47;3.28;;;0.98;;
66118;SDS011;52912;48.564;9.302;2022-09-09T09:43:16;5.72;;;1.20;;
66118;SDS011;52912;48.564;9.302;2022-09-09T09:45:46;2.72;;;1.20;;
66118;SDS011;52912;48.564;9.302;2022-09-09T09:48:12;4.05;;;1.10;;
66118;SDS011;52912;48.564;9.302;2022-09-09T09:50:40;4.95;;;1.25;;
66118;SDS011;52912;48.564;9.302;2022-09-09T09:53:16;5.78;;;1.33;;
66118;SDS011;52912;48.564;9.302;2022-09-09T09:55:46;5.72;;;1.20;;
66118;SDS011;52912;48.564;9.302;2022-09-09T09:58:17;3.80;;;1.17;;
66118;SDS011;52912;48.564;9.302;2022-09-09T10:00:48;4.07;;;1.20;;
66118;SDS011;52912;48.564;9.302;2022-09-09T10:03:18;4.95;;;1.10;;
66118;SDS011;52912;48.564;9.302;2022-09-09T10:05:47;4.55;;;1.25;;
66118;SDS011;52912;48.564;9.302;2022-09-09T10:08:13;5.35;;;1.05;;
66118;SDS011;52912;48.564;9.302;2022-09-09T10:10:43;6.15;;;1.30;;
66118;SDS011;52912;48.564;9.302;2022-09-09T10:13:28;6.68;;;1.33;;
66118;SDS011;52912;48.564;9.302;2022-09-09T10:16:04;4.63;;;1.30;;
66118;SDS011;52912;48.564;9.302;2022-09-09T10:18:41;2.55;;;1.33;;
66118;SDS011;52912;48.564;9.302;2022-09-09T10:21:16;5.07;;;1.20;;
66118;SDS011;52912;48.564;9.302;2022-09-09T10:23:54;5.00;;;1.55;;
66118;SDS011;52912;48.564;9.302;2022-09-09T10:26:35;3.97;;;1.25;;
66118;SDS011;52912;48.564;9.302;2022-09-09T10:29:11;3.70;;;1.00;;
66118;SDS011;52912;48.564;9.302;2022-09-09T10:31:51;2.90;;;1.00;;
66118;SDS011;52912;48.564;9.302;2022-09-09T10:34:33;4.13;;;1.15;;
66118;SDS011;52912;48.564;9.302;2022-09-09T10:37:15;4.55;;;1.02;;
66118;SDS011;52912;48.564;9.302;2022-09-09T10:39:47;3.80;;;1.10;;
66118;SDS011;52912;48.564;9.302;2022-09-09T10:42:19;3.63;;;1.20;;
66118;SDS011;52912;48.564;9.302;2022-09-09T10:44:55;4.63;;;1.23;;
66118;SDS011;52912;48.564;9.302;2022-09-09T10:47:34;7.03;;;1.37;;
66118;SDS011;52912;48.564;9.302;2022-09-09T10:50:18;4.40;;;1.35;;
66118;SDS011;52912;48.564;9.302;2022-09-09T10:53:08;5.10;;;1.10;;
66118;SDS011;52912;48.564;9.302;2022-09-09T10:55:37;3.50;;;1.13;;
66118;SDS011;52912;48.564;9.302;2022-09-09T10:58:09;3.58;;;0.95;;
66118;SDS011;52912;48.564;9.302;2022-09-09T11:00:38;2.80;;;0.95;;
66118;SDS011;52912;48.564;9.302;2022-09-09T11:03:11;2.65;;;1.25;;
66118;SDS011;52912;48.564;9.302;2022-09-09T11:05:44;2.63;;;0.90;;
66118;SDS011;52912;48.564;9.302;2022-09-09T11:08:13;3.63;;;1.02;;
66118;SDS011;52912;48.564;9.302;2022-09-09T11:10:43;4.22;;;1.00;;
66118;SDS011;52912;48.564;9.302;2022-09-09T11:13:14;5.38;;;0.95;;
66118;SDS011;52912;48.564;9.302;2022-09-09T11:15:44;3.83;;;1.00;;
66118;SDS011;52912;48.564;9.302;2022-09-09T11:18:17;2.95;;;1.10;;
66118;SDS011;52912;48.564;9.302;2022-09-09T11:20:45;2.40;;;0.88;;
66118;SDS011;52912;48.564;9.302;2022-09-09T11:25:42;5.18;;;1.13;;
66118;SDS011;52912;48.564;9.302;2022-09-09T11:30:54;3.22;;;0.90;;
66118;SDS011;52912;48.564;9.302;2022-09-09T11:33:37;4.03;;;1.10;;
66118;SDS011;52912;48.564;9.302;2022-09-09T11:36:24;2.35;;;1.00;;
66118;SDS011;52912;48.564;9.302;2022-09-09T11:39:06;23.27;;;1.80;;
66118;SDS011;52912;48.564;9.302;2022-09-09T11:41:49;2.60;;;1.00;;
66118;SDS011;52912;48.564;9.302;2022-09-09T11:44:16;3.67;;;1.00;;
66118;SDS011;52912;48.564;9.302;2022-09-09T11:46:44;2.17;;;1.00;;
66118;SDS011;52912;48.564;9.302;2022-09-09T11:49:25;3.33;;;1.08;;
66118;SDS011;52912;48.564;9.302;2022-09-09T11:51:52;3.10;;;0.93;;
66118;SDS011;52912;48.564;9.302;2022-09-09T11:54:27;3.42;;;1.00;;
66118;SDS011;52912;48.564;9.302;2022-09-09T11:56:55;3.10;;;0.82;;
66118;SDS011;52912;48.564;9.302;2022-09-09T11:59:21;4.15;;;0.95;;
66118;SDS011;52912;48.564;9.302;2022-09-09T12:01:49;1.17;;;0.65;;
66118;SDS011;52912;48.564;9.302;2022-09-09T12:04:31;1.35;;;0.70;;
66118;SDS011;52912;48.564;9.302;2022-09-09T12:07:00;2.95;;;1.13;;
66118;SDS011;52912;48.564;9.302;2022-09-09T12:09:29;3.38;;;0.95;;
66118;SDS011;52912;48.564;9.302;2022-09-09T12:12:24;5.05;;;0.90;;
66118;SDS011;52912;48.564;9.302;2022-09-09T12:14:59;1.80;;;0.75;;
66118;SDS011;52912;48.564;9.302;2022-09-09T12:17:28;2.85;;;0.98;;
66118;SDS011;52912;48.564;9.302;2022-09-09T12:20:08;2.00;;;0.77;;
66118;SDS011;52912;48.564;9.302;2022-09-09T12:22:41;3.67;;;0.80;;
66118;SDS011;52912;48.564;9.302;2022-09-09T12:25:18;7.97;;;1.20;;
66118;SDS011;52912;48.564;9.302;2022-09-09T12:27:57;2.47;;;0.70;;
66118;SDS011;52912;48.564;9.302;2022-09-09T12:30:29;3.47;;;1.13;;
66118;SDS011;52912;48.564;9.302;2022-09-09T12:33:01;3.17;;;1.02;;
66118;SDS011;52912;48.564;9.302;2022-09-09T12:35:28;3.38;;;1.10;;
66118;SDS011;52912;48.564;9.302;2022-09-09T12:37:55;3.85;;;0.82;;
66118;SDS011;52912;48.564;9.302;2022-09-09T12:40:23;3.65;;;0.95;;
66118;SDS011;52912;48.564;9.302;2022-09-09T12:42:50;2.97;;;0.95;;
66118;SDS011;52912;48.564;9.302;2022-09-09T12:45:16;2.30;;;1.00;;
66118;SDS011;52912;48.564;9.302;2022-09-09T12:47:45;4.80;;;0.90;;
66118;SDS011;52912;48.564;9.302;2022-09-09T12:50:17;4.20;;;1.10;;
66118;SDS011;52912;48.564;9.302;2022-09-09T12:52:46;3.03;;;0.98;;
66118;SDS011;52912;48.564;9.302;2022-09-09T12:55:16;2.78;;;0.80;;
66118;SDS011;52912;48.564;9.302;2022-09-09T12:57:44;5.35;;;0.90;;
66118;SDS011;52912;48.564;9.302;2022-09-09T13:00:12;4.10;;;1.15;;
66118;SDS011;52912;48.564;9.302;2022-09-09T13:02:48;1.75;;;0.95;;
66118;SDS011;52912;48.564;9.302;2022-09-09T13:05:16;3.30;;;0.95;;
66118;SDS011;52912;48.564;9.302;2022-09-09T13:07:44;5.47;;;1.17;;
66118;SDS011;52912;48.564;9.302;2022-09-09T13:10:12;4.13;;;1.00;;
66118;SDS011;52912;48.564;9.302;2022-09-09T13:12:39;2.88;;;1.00;;
66118;SDS011;52912;48.564;9.302;2022-09-09T13:15:10;2.92;;;1.08;;
66118;SDS011;52912;48.564;9.302;2022-09-09T13:17:41;4.20;;;1.00;;
66118;SDS011;52912;48.564;9.302;2022-09-09T13:20:14;3.10;;;1.00;;
66118;SDS011;52912;48.564;9.302;2022-09-09T13:22:41;2.35;;;1.02;;
66118;SDS011;52912;48.564;9.302;2022-09-09T13:25:17;1.92;;;0.90;;
66118;SDS011;52912;48.564;9.302;2022-09-09T13:27:51;2.05;;;0.75;;
66118;SDS011;52912;48.564;9.302;2022-09-09T13:30:22;1.45;;;0.70;;
66118;SDS011;52912;48.564;9.302;2022-09-09T13:32:59;4.22;;;1.00;;
66118;SDS011;52912;48.564;9.302;2022-09-09T13:35:25;6.03;;;1.02;;
66118;SDS011;52912;48.564;9.302;2022-09-09T13:37:51;1.85;;;0.80;;
66118;SDS011;52912;48.564;9.302;2022-09-09T13:40:18;4.70;;;1.15;;
66118;SDS011;52912;48.564;9.302;2022-09-09T13:42:45;2.45;;;0.88;;
66118;SDS011;52912;48.564;9.302;2022-09-09T13:45:15;2.67;;;0.85;;
66118;SDS011;52912;48.564;9.302;2022-09-09T13:47:42;5.78;;;1.02;;
66118;SDS011;52912;48.564;9.302;2022-09-09T13:50:18;2.65;;;0.90;;
66118;SDS011;52912;48.564;9.302;2022-09-09T13:52:44;3.05;;;1.02;;
66118;SDS011;52912;48.564;9.302;2022-09-09T13:55:09;2.83;;;0.90;;
66118;SDS011;52912;48.564;9.302;2022-09-09T13:57:36;10.18;;;1.00;;
66118;SDS011;52912;48.564;9.302;2022-09-09T14:00:02;4.07;;;0.98;;
66118;SDS011;52912;48.564;9.302;2022-09-09T14:02:28;2.50;;;0.85;;
66118;SDS011;52912;48.564;9.302;2022-09-09T14:04:53;2.55;;;0.80;;
66118;SDS011;52912;48.564;9.302;2022-09-09T14:07:19;1.35;;;0.73;;
66118;SDS011;52912;48.564;9.302;2022-09-09T14:09:44;3.25;;;0.90;;
66118;SDS011;52912;48.564;9.302;2022-09-09T14:12:10;4.40;;;1.20;;
66118;SDS011;52912;48.564;9.302;2022-09-09T14:14:37;3.17;;;0.90;;
66118;SDS011;52912;48.564;9.302;2022-09-09T14:17:03;1.48;;;0.80;;
66118;SDS011;52912;48.564;9.302;2022-09-09T14:19:29;1.85;;;0.88;;
66118;SDS011;52912;48.564;9.302;2022-09-09T14:21:55;2.15;;;0.90;;
66118;SDS011;52912;48.564;9.302;2022-09-09T14:24:20;4.65;;;1.15;;
66118;SDS011;52912;48.564;9.302;2022-09-09T14:26:46;3.88;;;1.00;;
66118;SDS011;52912;48.564;9.302;2022-09-09T14:29:11;2.67;;;0.80;;
66118;SDS011;52912;48.564;9.302;2022-09-09T14:31:38;3.42;;;0.80;;
66118;SDS011;52912;48.564;9.302;2022-09-09T14:34:03;5.10;;;1.10;;
66118;SDS011;52912;48.564;9.302;2022-09-09T14:36:29;4.43;;;1.00;;
66118;SDS011;52912;48.564;9.302;2022-09-09T14:38:54;2.75;;;0.70;;
66118;SDS011;52912;48.564;9.302;2022-09-09T14:41:20;2.80;;;0.98;;
66118;SDS011;52912;48.564;9.302;2022-09-09T14:43:45;2.95;;;0.98;;
66118;SDS011;52912;48.564;9.302;2022-09-09T14:46:11;5.15;;;0.82;;
66118;SDS011;52912;48.564;9.302;2022-09-09T14:48:40;2.83;;;0.80;;
66118;SDS011;52912;48.564;9.302;2022-09-09T14:51:06;8.00;;;1.10;;
66118;SDS011;52912;48.564;9.302;2022-09-09T14:53:33;3.97;;;0.88;;
66118;SDS011;52912;48.564;9.302;2022-09-09T14:56:02;3.83;;;0.80;;
66118;SDS011;52912;48.564;9.302;2022-09-09T14:58:30;2.75;;;0.80;;
66118;SDS011;52912;48.564;9.302;2022-09-09T15:00:55;1.95;;;0.80;;
66118;SDS011;52912;48.564;9.302;2022-09-09T15:03:27;2.83;;;1.10;;
66118;SDS011;52912;48.564;9.302;2022-09-09T15:05:54;3.13;;;1.08;;